createdAt,value
2023-01-04T00:00:54.143Z,93.72
2023-01-04T00:04:58.588Z,94.20
2023-01-04T00:09:02.205Z,93.76
2023-01-04T00:13:05.896Z,93.74
2023-01-04T00:17:08.742Z,93.53
2023-01-04T00:21:15.067Z,93.67
2023-01-04T00:25:18.340Z,93.77
2023-01-04T00:29:21.684Z,93.37
2023-01-04T00:33:25.059Z,93.62
2023-01-04T00:37:29.909Z,93.40
2023-01-04T00:41:57.643Z,93.90
2023-01-04T00:45:55.667Z,93.32
2023-01-04T00:49:59.021Z,93.40
2023-01-04T00:54:05.690Z,93.98
2023-01-04T00:58:09.963Z,94.18
2023-01-04T01:02:13.171Z,93.88
2023-01-04T01:06:19.050Z,93.89
2023-01-04T01:10:24.308Z,93.96
2023-01-04T01:14:27.511Z,93.68
2023-01-04T01:18:31.104Z,93.74
2023-01-04T01:22:37.026Z,93.74
2023-01-04T01:26:41.535Z,93.87
2023-01-04T01:30:45.426Z,93.52
2023-01-04T01:34:48.491Z,93.70
2023-01-04T01:38:53.074Z,93.87
2023-01-04T01:42:57.670Z,93.40
2023-01-04T01:47:01.777Z,93.53
2023-01-04T01:51:05.707Z,93.41
2023-01-04T01:55:11.985Z,93.66
2023-01-04T01:59:17.229Z,93.49
2023-01-04T02:03:22.094Z,93.09
2023-01-04T02:07:28.513Z,93.50
2023-01-04T02:11:31.682Z,93.70
2023-01-04T02:15:47.321Z,93.54
2023-01-04T02:20:20.452Z,93.41
2023-01-04T02:24:37.422Z,93.50
2023-01-04T02:28:57.341Z,92.96
2023-01-04T02:33:16.070Z,93.50
2023-01-04T02:37:24.857Z,93.72
2023-01-04T02:41:34.952Z,93.54
2023-01-04T02:45:40.480Z,93.37
2023-01-04T02:50:13.776Z,93.16
2023-01-04T02:54:18.949Z,93.45
2023-01-04T02:58:34.411Z,93.84
2023-01-04T03:03:14.720Z,93.42
2023-01-04T03:07:25.760Z,93.48
2023-01-04T03:11:51.257Z,93.41
2023-01-04T03:15:59.028Z,93.50
2023-01-04T03:20:02.303Z,93.84
2023-01-04T03:24:25.589Z,93.11
2023-01-04T03:28:50.267Z,92.36
2023-01-04T03:33:14.093Z,93.12
2023-01-04T03:37:23.302Z,92.43
2023-01-04T03:41:48.541Z,92.38
2023-01-04T03:46:12.502Z,91.80
2023-01-04T03:50:21.264Z,91.86
2023-01-04T03:54:29.331Z,91.32
2023-01-04T03:58:34.062Z,91.67
2023-01-04T04:02:37.295Z,91.28
2023-01-04T04:06:58.164Z,91.81
2023-01-04T04:11:23.346Z,90.67
2023-01-04T04:15:28.214Z,90.83
2023-01-04T04:19:31.831Z,91.02
2023-01-04T04:23:35.340Z,91.36
2023-01-04T04:27:38.998Z,91.39
2023-01-04T04:31:43.619Z,92.35
2023-01-04T04:35:47.074Z,92.38
2023-01-04T04:39:50.012Z,92.69
2023-01-04T04:43:56.233Z,93.16
2023-01-04T04:48:02.916Z,93.37
2023-01-04T04:52:06.893Z,93.98
2023-01-04T04:56:10.466Z,94.46
2023-01-04T05:00:15.825Z,94.01
2023-01-04T05:04:20.108Z,94.34
2023-01-04T05:08:23.332Z,94.78
2023-01-04T05:12:57.552Z,94.75
2023-01-04T05:17:01.235Z,94.48
2023-01-04T05:21:10.063Z,94.51
2023-01-04T05:25:13.690Z,95.16
2023-01-04T05:29:30.668Z,95.24
2023-01-04T05:33:35.750Z,95.32
2023-01-04T05:37:40.063Z,95.69
2023-01-04T05:42:00.544Z,95.57
2023-01-04T05:46:03.852Z,95.10
2023-01-04T05:50:08.569Z,95.32
2023-01-04T05:54:17.850Z,95.38
2023-01-04T05:58:25.196Z,95.76
2023-01-04T06:02:29.525Z,95.65
2023-01-04T06:06:32.800Z,95.63
2023-01-04T06:10:37.896Z,95.35
2023-01-04T06:14:41.619Z,95.58
2023-01-04T06:18:44.972Z,95.69
2023-01-04T06:22:48.402Z,95.55
2023-01-04T06:26:52.554Z,95.56
2023-01-04T06:30:55.724Z,96.04
2023-01-04T06:34:59.128Z,96.31
2023-01-04T06:39:03.070Z,96.00
2023-01-04T06:43:08.668Z,96.16
2023-01-04T06:47:11.676Z,96.26
2023-01-04T06:51:15.087Z,96.16
2023-01-04T06:55:18.336Z,95.94
2023-01-04T06:59:23.414Z,95.88
2023-01-04T07:03:26.686Z,96.42
2023-01-04T07:07:30.367Z,96.14
2023-01-04T07:11:33.116Z,96.32
2023-01-04T07:15:40.608Z,96.36
2023-01-04T07:19:44.297Z,95.78
2023-01-04T07:23:47.834Z,95.71
2023-01-04T07:27:52.298Z,95.56
2023-01-04T07:31:56.942Z,96.06
2023-01-04T07:36:03.810Z,96.07
2023-01-04T07:40:08.138Z,96.19
2023-01-04T07:44:12.160Z,95.71
2023-01-04T07:48:16.407Z,95.61
2023-01-04T07:52:19.315Z,95.31
2023-01-04T07:56:22.700Z,95.87
2023-01-04T08:00:25.787Z,95.87
2023-01-04T08:04:34.900Z,95.70
2023-01-04T08:08:38.475Z,95.65
2023-01-04T08:12:41.326Z,95.56
2023-01-04T08:16:44.574Z,96.01
2023-01-04T08:20:52.172Z,95.81
2023-01-04T08:24:59.584Z,95.42
2023-01-04T08:29:02.374Z,95.68
2023-01-04T08:33:14.737Z,95.77
2023-01-04T08:37:19.049Z,95.96
2023-01-04T08:41:56.505Z,96.21
2023-01-04T08:45:50.908Z,96.01
2023-01-04T08:49:53.921Z,95.97
2023-01-04T08:53:59.376Z,95.82
2023-01-04T08:58:02.270Z,95.37
2023-01-04T09:02:06.454Z,95.92
2023-01-04T09:06:16.271Z,96.00
2023-01-04T09:10:20.592Z,95.45
2023-01-04T09:14:23.566Z,95.58
2023-01-04T09:18:33.602Z,95.36
2023-01-04T09:22:36.683Z,94.83
2023-01-04T09:26:40.843Z,94.85
2023-01-04T09:30:43.838Z,94.79
2023-01-04T09:34:47.050Z,94.43
2023-01-04T09:38:50.343Z,94.68
2023-01-04T09:43:20.268Z,95.46
2023-01-04T09:47:22.754Z,94.65
2023-01-04T09:51:32.690Z,94.65
2023-01-04T09:55:41.329Z,95.03
2023-01-04T09:59:46.718Z,94.99
2023-01-04T10:03:56.052Z,96.19
2023-01-04T10:07:58.866Z,95.54
2023-01-04T10:12:09.653Z,95.89
2023-01-04T10:16:44.367Z,95.84
2023-01-04T10:21:26.334Z,95.56
2023-01-04T10:25:26.333Z,95.93
2023-01-04T10:29:41.154Z,95.25
2023-01-04T10:33:48.918Z,96.02
2023-01-04T10:37:54.374Z,95.17
2023-01-04T10:42:08.409Z,95.26
2023-01-04T10:46:15.553Z,94.83
2023-01-04T10:50:23.548Z,95.47
2023-01-04T10:54:31.515Z,95.58
2023-01-04T10:58:37.377Z,95.38
2023-01-04T11:02:45.953Z,95.09
2023-01-04T11:06:54.130Z,94.15
2023-01-04T11:11:00.772Z,95.13
2023-01-04T11:15:06.332Z,95.14
2023-01-04T11:19:10.763Z,94.77
2023-01-04T11:23:17.157Z,93.65
2023-01-04T11:27:26.975Z,94.01
2023-01-04T11:31:38.313Z,94.33
2023-01-04T11:35:43.708Z,93.59
2023-01-04T11:39:47.911Z,94.07
2023-01-04T11:43:58.248Z,93.62
2023-01-04T11:48:01.055Z,93.39
2023-01-04T11:52:04.311Z,93.31
2023-01-04T11:56:20.763Z,93.82
2023-01-04T12:00:24.558Z,93.83
2023-01-04T12:08:51.912Z,94.20
2023-01-04T12:12:56.924Z,94.38
2023-01-04T12:17:04.206Z,93.93
2023-01-04T12:21:07.140Z,95.21
2023-01-04T12:25:23.266Z,95.25
2023-01-04T12:29:44.456Z,94.61
2023-01-04T12:33:48.039Z,95.19
2023-01-04T12:37:50.816Z,94.64
2023-01-04T12:42:23.307Z,95.53
2023-01-04T12:46:59.895Z,94.90
2023-01-04T12:51:33.009Z,94.83
2023-01-04T12:55:52.215Z,95.59
2023-01-04T12:59:56.813Z,95.25
2023-01-04T13:04:06.164Z,95.33
2023-01-04T13:08:11.904Z,96.39
2023-01-04T13:12:34.417Z,96.46
2023-01-04T13:16:39.958Z,96.52
2023-01-04T13:20:47.090Z,95.46
2023-01-04T13:24:52.640Z,95.69
2023-01-04T13:29:07.284Z,96.66
2023-01-04T13:33:27.163Z,96.42
2023-01-04T13:37:34.947Z,95.99
2023-01-04T13:41:37.804Z,95.80
2023-01-04T13:45:52.510Z,96.36
2023-01-04T13:49:55.495Z,95.55
2023-01-04T13:54:08.275Z,96.83
2023-01-04T13:58:18.929Z,96.49
2023-01-04T14:02:23.309Z,95.78
2023-01-04T14:06:29.338Z,96.07
2023-01-04T14:10:34.696Z,96.67
2023-01-04T14:14:40.628Z,96.46
2023-01-04T14:18:43.390Z,96.13
2023-01-04T14:22:53.709Z,96.36
2023-01-04T14:26:58.232Z,97.05
2023-01-04T14:31:34.763Z,96.22
2023-01-04T14:35:41.837Z,96.91
2023-01-04T14:39:52.493Z,97.14
2023-01-04T14:44:06.769Z,96.69
2023-01-04T14:48:10.978Z,96.59
2023-01-04T14:52:21.738Z,96.34
2023-01-04T14:56:24.566Z,96.07
2023-01-04T15:00:28.732Z,96.33
2023-01-04T15:04:32.182Z,96.20
2023-01-04T15:08:35.880Z,96.95
2023-01-04T15:12:38.786Z,96.98
2023-01-04T15:16:43.409Z,96.48
2023-01-04T15:20:47.447Z,97.20
2023-01-04T15:24:50.396Z,96.88
2023-01-04T15:28:55.707Z,96.66
2023-01-04T15:33:00.099Z,97.22
2023-01-04T15:37:03.186Z,96.89
2023-01-04T15:41:08.762Z,96.50
2023-01-04T15:45:12.278Z,97.49
2023-01-04T15:49:17.820Z,97.06
2023-01-04T15:53:21.024Z,97.28
2023-01-04T15:57:23.840Z,96.85
2023-01-04T16:01:28.188Z,97.17
2023-01-04T16:05:37.321Z,97.25
2023-01-04T16:09:41.345Z,97.08
2023-01-04T16:13:46.492Z,97.46
2023-01-04T16:17:50.453Z,96.91
2023-01-04T16:21:57.184Z,96.61
2023-01-04T16:26:08.713Z,96.71
2023-01-04T16:30:14.955Z,97.84
2023-01-04T16:34:21.963Z,97.45
2023-01-04T16:38:41.711Z,97.20
2023-01-04T16:42:51.006Z,96.63
2023-01-04T16:46:54.047Z,96.88
2023-01-04T16:51:02.576Z,97.21
2023-01-04T16:55:08.889Z,97.67
2023-01-04T16:59:13.509Z,97.09
2023-01-04T17:03:17.028Z,96.75
2023-01-04T17:07:20.911Z,97.65
2023-01-04T17:12:11.269Z,96.92
2023-01-04T17:15:50.395Z,96.52
2023-01-04T17:19:55.081Z,97.21
2023-01-04T17:24:00.325Z,96.93
2023-01-04T17:28:10.193Z,97.46
2023-01-04T17:32:17.779Z,97.25
2023-01-04T17:36:22.466Z,96.82
2023-01-04T17:40:25.805Z,97.19
2023-01-04T17:44:32.616Z,97.04
2023-01-04T17:48:37.216Z,97.35
2023-01-04T17:52:43.021Z,97.63
2023-01-04T17:56:48.309Z,96.65
2023-01-04T18:00:53.534Z,96.64
2023-01-04T18:04:57.057Z,96.84
2023-01-04T18:09:03.517Z,96.59
2023-01-04T18:13:07.435Z,96.91
2023-01-04T18:17:14.918Z,97.31
2023-01-04T18:21:28.784Z,97.19
2023-01-04T18:25:37.293Z,97.68
2023-01-04T18:29:40.555Z,97.20
2023-01-04T18:33:45.759Z,96.75
2023-01-04T18:37:49.245Z,97.48
2023-01-04T18:41:52.382Z,96.70
2023-01-04T18:45:55.713Z,97.07
2023-01-04T18:50:00.351Z,96.73
2023-01-04T18:54:03.761Z,97.42
2023-01-04T18:58:07.101Z,97.16
2023-01-04T19:02:17.695Z,96.91
2023-01-04T19:06:24.441Z,97.01
2023-01-04T19:10:28.114Z,96.85
2023-01-04T19:14:51.001Z,97.58
2023-01-04T19:18:54.607Z,97.10
2023-01-04T19:22:59.094Z,96.78
2023-01-04T19:27:03.347Z,97.34
2023-01-04T19:31:09.017Z,97.06
2023-01-04T19:35:12.762Z,96.83
2023-01-04T19:39:17.664Z,96.69
2023-01-04T19:43:21.185Z,96.93
2023-01-04T19:47:24.594Z,96.04
2023-01-04T19:51:32.697Z,96.37
2023-01-04T19:55:39.799Z,96.39
2023-01-04T19:59:43.101Z,96.35
2023-01-04T20:03:46.108Z,95.82
2023-01-04T20:07:51.128Z,96.26
2023-01-04T20:11:55.650Z,95.58
2023-01-04T20:15:58.926Z,96.40
2023-01-04T20:20:02.176Z,95.90
2023-01-04T20:24:11.456Z,96.23
2023-01-04T20:28:17.274Z,95.85
2023-01-04T20:32:20.023Z,95.60
2023-01-04T20:36:26.292Z,95.81
2023-01-04T20:40:29.640Z,95.20
2023-01-04T20:44:34.823Z,95.71
2023-01-04T20:48:37.642Z,95.26
2023-01-04T20:52:40.716Z,96.00
2023-01-04T20:56:44.510Z,96.52
2023-01-04T21:00:49.086Z,96.66
2023-01-04T21:04:52.592Z,96.54
2023-01-04T21:08:58.435Z,97.22
2023-01-04T21:13:01.291Z,96.92
2023-01-04T21:17:09.692Z,96.64
2023-01-04T21:21:15.874Z,97.00
2023-01-04T21:25:18.749Z,97.13
2023-01-04T21:29:22.798Z,96.63
2023-01-04T21:33:27.263Z,96.93
2023-01-04T21:37:34.309Z,96.88
2023-01-04T21:41:47.506Z,96.95
2023-01-04T21:45:50.990Z,96.38
2023-01-04T21:49:56.110Z,97.02
2023-01-04T21:54:01.838Z,97.21
2023-01-04T21:58:05.440Z,97.05
2023-01-04T22:02:08.582Z,96.37
2023-01-04T22:06:14.510Z,96.19
2023-01-04T22:10:17.505Z,96.58
2023-01-04T22:14:25.453Z,96.31
2023-01-04T22:18:28.473Z,96.57
2023-01-04T22:22:34.476Z,96.50
2023-01-04T22:26:41.969Z,96.47
2023-01-04T22:30:45.074Z,97.22
2023-01-04T22:34:48.416Z,97.04
2023-01-04T22:38:59.580Z,96.63
2023-01-04T22:43:03.012Z,96.54
2023-01-04T22:47:06.068Z,97.09
2023-01-04T22:51:10.504Z,97.29
2023-01-04T22:55:15.557Z,97.32
2023-01-04T22:59:18.917Z,96.98
2023-01-04T23:03:21.946Z,97.89
2023-01-04T23:07:24.927Z,96.98
2023-01-04T23:11:31.913Z,97.21
2023-01-04T23:15:37.965Z,97.71
2023-01-04T23:19:41.315Z,97.22
2023-01-04T23:23:51.277Z,97.27
2023-01-04T23:27:56.509Z,96.78
2023-01-04T23:32:00.230Z,97.30
2023-01-04T23:36:10.381Z,97.18
2023-01-04T23:40:14.067Z,97.21
2023-01-04T23:44:20.284Z,97.10
2023-01-04T23:48:23.864Z,97.50
2023-01-04T23:52:27.480Z,97.24
2023-01-04T23:56:30.531Z,97.61
